sensor_id;sensor_type;location;lat;lon;timestamp;P1;durP1;ratioP1;P2;durP2;ratioP2
15958;SDS011;8078;47.822;9.402;2023-06-22T00:01:47;16.92;;;7.25;;
15958;SDS011;8078;47.822;9.402;2023-06-22T00:04:13;17.13;;;8.02;;
15958;SDS011;8078;47.822;9.402;2023-06-22T00:06:39;20.75;;;7.65;;
15958;SDS011;8078;47.822;9.402;2023-06-22T00:09:04;15.30;;;7.18;;
15958;SDS011;8078;47.822;9.402;2023-06-22T00:11:31;10.93;;;7.20;;
15958;SDS011;8078;47.822;9.402;2023-06-22T00:13:58;17.05;;;8.13;;
15958;SDS011;8078;47.822;9.402;2023-06-22T00:16:24;17.05;;;7.75;;
15958;SDS011;8078;47.822;9.402;2023-06-22T00:18:50;16.33;;;7.80;;
15958;SDS011;8078;47.822;9.402;2023-06-22T00:21:15;19.63;;;8.27;;
15958;SDS011;8078;47.822;9.402;2023-06-22T00:23:41;17.20;;;8.25;;
15958;SDS011;8078;47.822;9.402;2023-06-22T00:26:06;14.48;;;8.15;;
15958;SDS011;8078;47.822;9.402;2023-06-22T00:28:32;12.70;;;8.23;;
15958;SDS011;8078;47.822;9.402;2023-06-22T00:30:58;17.88;;;8.27;;
15958;SDS011;8078;47.822;9.402;2023-06-22T00:33:25;12.40;;;8.15;;
15958;SDS011;8078;47.822;9.402;2023-06-22T00:35:51;13.27;;;7.47;;
15958;SDS011;8078;47.822;9.402;2023-06-22T00:38:18;18.80;;;8.50;;
15958;SDS011;8078;47.822;9.402;2023-06-22T00:40:44;14.68;;;7.60;;
15958;SDS011;8078;47.822;9.402;2023-06-22T00:43:10;16.30;;;8.15;;
15958;SDS011;8078;47.822;9.402;2023-06-22T00:45:36;17.55;;;8.48;;
15958;SDS011;8078;47.822;9.402;2023-06-22T00:48:02;18.10;;;8.80;;
15958;SDS011;8078;47.822;9.402;2023-06-22T00:50:32;18.88;;;8.40;;
15958;SDS011;8078;47.822;9.402;2023-06-22T00:52:59;20.27;;;9.50;;
15958;SDS011;8078;47.822;9.402;2023-06-22T00:55:29;16.27;;;8.70;;
15958;SDS011;8078;47.822;9.402;2023-06-22T00:57:55;16.23;;;7.45;;
15958;SDS011;8078;47.822;9.402;2023-06-22T01:00:22;20.33;;;8.70;;
15958;SDS011;8078;47.822;9.402;2023-06-22T01:02:49;15.98;;;8.45;;
15958;SDS011;8078;47.822;9.402;2023-06-22T01:05:17;13.85;;;8.25;;
15958;SDS011;8078;47.822;9.402;2023-06-22T01:10:21;17.83;;;8.95;;
15958;SDS011;8078;47.822;9.402;2023-06-22T01:12:57;18.52;;;8.23;;
15958;SDS011;8078;47.822;9.402;2023-06-22T01:15:39;17.42;;;9.38;;
15958;SDS011;8078;47.822;9.402;2023-06-22T01:18:11;21.05;;;8.80;;
15958;SDS011;8078;47.822;9.402;2023-06-22T01:20:38;18.83;;;8.80;;
15958;SDS011;8078;47.822;9.402;2023-06-22T01:23:09;23.50;;;9.48;;
15958;SDS011;8078;47.822;9.402;2023-06-22T01:28:49;20.70;;;9.82;;
15958;SDS011;8078;47.822;9.402;2023-06-22T01:31:19;24.75;;;10.05;;
15958;SDS011;8078;47.822;9.402;2023-06-22T01:33:49;18.25;;;10.27;;
15958;SDS011;8078;47.822;9.402;2023-06-22T01:36:17;21.92;;;9.65;;
15958;SDS011;8078;47.822;9.402;2023-06-22T01:38:44;22.20;;;10.48;;
15958;SDS011;8078;47.822;9.402;2023-06-22T01:41:11;22.35;;;10.18;;
15958;SDS011;8078;47.822;9.402;2023-06-22T01:43:37;20.38;;;10.38;;
15958;SDS011;8078;47.822;9.402;2023-06-22T01:46:03;19.40;;;9.82;;
15958;SDS011;8078;47.822;9.402;2023-06-22T01:48:29;17.90;;;10.38;;
15958;SDS011;8078;47.822;9.402;2023-06-22T01:50:56;19.88;;;10.18;;
15958;SDS011;8078;47.822;9.402;2023-06-22T01:53:23;21.10;;;9.95;;
15958;SDS011;8078;47.822;9.402;2023-06-22T01:55:49;15.85;;;9.80;;
15958;SDS011;8078;47.822;9.402;2023-06-22T01:58:15;22.80;;;11.07;;
15958;SDS011;8078;47.822;9.402;2023-06-22T02:00:44;23.15;;;11.15;;
15958;SDS011;8078;47.822;9.402;2023-06-22T02:03:21;21.15;;;11.10;;
15958;SDS011;8078;47.822;9.402;2023-06-22T02:05:50;23.95;;;10.98;;
15958;SDS011;8078;47.822;9.402;2023-06-22T02:08:20;21.63;;;10.43;;
15958;SDS011;8078;47.822;9.402;2023-06-22T02:10:50;16.38;;;10.13;;
15958;SDS011;8078;47.822;9.402;2023-06-22T02:13:17;18.45;;;10.13;;
15958;SDS011;8078;47.822;9.402;2023-06-22T02:15:43;24.00;;;11.02;;
15958;SDS011;8078;47.822;9.402;2023-06-22T02:18:10;17.98;;;10.68;;
15958;SDS011;8078;47.822;9.402;2023-06-22T02:20:36;21.48;;;10.85;;
15958;SDS011;8078;47.822;9.402;2023-06-22T02:23:02;15.13;;;10.25;;
15958;SDS011;8078;47.822;9.402;2023-06-22T02:25:28;16.17;;;10.15;;
15958;SDS011;8078;47.822;9.402;2023-06-22T02:27:53;21.98;;;10.60;;
15958;SDS011;8078;47.822;9.402;2023-06-22T02:30:19;21.55;;;10.18;;
15958;SDS011;8078;47.822;9.402;2023-06-22T02:32:44;20.60;;;10.48;;
15958;SDS011;8078;47.822;9.402;2023-06-22T02:35:10;17.77;;;10.50;;
15958;SDS011;8078;47.822;9.402;2023-06-22T02:37:36;21.55;;;10.50;;
15958;SDS011;8078;47.822;9.402;2023-06-22T02:40:04;20.80;;;10.95;;
15958;SDS011;8078;47.822;9.402;2023-06-22T02:42:34;22.05;;;11.45;;
15958;SDS011;8078;47.822;9.402;2023-06-22T02:44:59;21.42;;;10.95;;
15958;SDS011;8078;47.822;9.402;2023-06-22T02:47:26;22.77;;;11.05;;
15958;SDS011;8078;47.822;9.402;2023-06-22T02:49:51;20.05;;;11.55;;
15958;SDS011;8078;47.822;9.402;2023-06-22T02:52:17;24.40;;;11.18;;
15958;SDS011;8078;47.822;9.402;2023-06-22T02:54:42;21.35;;;12.43;;
15958;SDS011;8078;47.822;9.402;2023-06-22T02:57:10;16.33;;;10.93;;
15958;SDS011;8078;47.822;9.402;2023-06-22T02:59:38;22.70;;;12.07;;
15958;SDS011;8078;47.822;9.402;2023-06-22T03:02:07;27.90;;;13.77;;
15958;SDS011;8078;47.822;9.402;2023-06-22T03:04:34;21.23;;;12.20;;
15958;SDS011;8078;47.822;9.402;2023-06-22T03:07:00;25.02;;;11.90;;
15958;SDS011;8078;47.822;9.402;2023-06-22T03:09:27;19.35;;;12.52;;
15958;SDS011;8078;47.822;9.402;2023-06-22T03:11:53;19.90;;;12.02;;
15958;SDS011;8078;47.822;9.402;2023-06-22T03:14:19;24.42;;;12.27;;
15958;SDS011;8078;47.822;9.402;2023-06-22T03:16:45;18.42;;;11.52;;
15958;SDS011;8078;47.822;9.402;2023-06-22T03:19:10;25.23;;;11.93;;
15958;SDS011;8078;47.822;9.402;2023-06-22T03:21:37;20.92;;;12.80;;
15958;SDS011;8078;47.822;9.402;2023-06-22T03:24:06;27.00;;;13.88;;
15958;SDS011;8078;47.822;9.402;2023-06-22T03:26:32;21.85;;;12.43;;
15958;SDS011;8078;47.822;9.402;2023-06-22T03:28:59;26.55;;;13.18;;
15958;SDS011;8078;47.822;9.402;2023-06-22T03:31:25;23.00;;;12.52;;
15958;SDS011;8078;47.822;9.402;2023-06-22T03:33:51;20.33;;;12.50;;
15958;SDS011;8078;47.822;9.402;2023-06-22T03:36:17;24.75;;;13.43;;
15958;SDS011;8078;47.822;9.402;2023-06-22T03:38:47;24.67;;;13.30;;
15958;SDS011;8078;47.822;9.402;2023-06-22T03:41:13;18.90;;;12.27;;
15958;SDS011;8078;47.822;9.402;2023-06-22T03:43:39;21.88;;;12.52;;
15958;SDS011;8078;47.822;9.402;2023-06-22T03:46:05;20.85;;;12.18;;
15958;SDS011;8078;47.822;9.402;2023-06-22T03:48:30;22.33;;;12.60;;
15958;SDS011;8078;47.822;9.402;2023-06-22T03:50:56;19.90;;;12.63;;
15958;SDS011;8078;47.822;9.402;2023-06-22T03:53:23;24.92;;;12.40;;
15958;SDS011;8078;47.822;9.402;2023-06-22T03:55:50;20.90;;;12.25;;
15958;SDS011;8078;47.822;9.402;2023-06-22T03:58:17;22.45;;;12.93;;
15958;SDS011;8078;47.822;9.402;2023-06-22T04:00:49;24.60;;;12.80;;
15958;SDS011;8078;47.822;9.402;2023-06-22T04:03:16;24.35;;;11.80;;
15958;SDS011;8078;47.822;9.402;2023-06-22T04:05:45;20.40;;;12.38;;
15958;SDS011;8078;47.822;9.402;2023-06-22T04:08:12;22.20;;;11.70;;
15958;SDS011;8078;47.822;9.402;2023-06-22T04:10:38;21.92;;;11.40;;
15958;SDS011;8078;47.822;9.402;2023-06-22T04:13:04;16.48;;;10.75;;
15958;SDS011;8078;47.822;9.402;2023-06-22T04:15:30;19.23;;;11.00;;
15958;SDS011;8078;47.822;9.402;2023-06-22T04:17:55;18.85;;;11.15;;
15958;SDS011;8078;47.822;9.402;2023-06-22T04:20:22;23.73;;;11.57;;
15958;SDS011;8078;47.822;9.402;2023-06-22T04:22:50;22.08;;;11.25;;
15958;SDS011;8078;47.822;9.402;2023-06-22T04:25:16;18.00;;;10.77;;
15958;SDS011;8078;47.822;9.402;2023-06-22T04:27:42;19.98;;;10.88;;
15958;SDS011;8078;47.822;9.402;2023-06-22T04:30:08;21.73;;;11.48;;
15958;SDS011;8078;47.822;9.402;2023-06-22T04:32:34;23.02;;;10.50;;
15958;SDS011;8078;47.822;9.402;2023-06-22T04:35:04;15.30;;;10.50;;
15958;SDS011;8078;47.822;9.402;2023-06-22T04:37:31;19.63;;;10.93;;
15958;SDS011;8078;47.822;9.402;2023-06-22T04:39:57;19.10;;;10.57;;
15958;SDS011;8078;47.822;9.402;2023-06-22T04:42:24;22.77;;;11.45;;
15958;SDS011;8078;47.822;9.402;2023-06-22T04:44:53;17.08;;;10.73;;
15958;SDS011;8078;47.822;9.402;2023-06-22T04:47:19;18.23;;;11.02;;
15958;SDS011;8078;47.822;9.402;2023-06-22T04:49:45;17.38;;;10.52;;
15958;SDS011;8078;47.822;9.402;2023-06-22T04:52:11;16.73;;;11.15;;
15958;SDS011;8078;47.822;9.402;2023-06-22T04:54:38;16.50;;;11.13;;
15958;SDS011;8078;47.822;9.402;2023-06-22T04:57:06;17.88;;;11.82;;
15958;SDS011;8078;47.822;9.402;2023-06-22T04:59:35;15.32;;;9.98;;
15958;SDS011;8078;47.822;9.402;2023-06-22T05:02:04;19.27;;;10.32;;
15958;SDS011;8078;47.822;9.402;2023-06-22T05:04:31;19.67;;;11.10;;
15958;SDS011;8078;47.822;9.402;2023-06-22T05:06:57;25.45;;;12.07;;
15958;SDS011;8078;47.822;9.402;2023-06-22T05:09:23;20.02;;;10.77;;
15958;SDS011;8078;47.822;9.402;2023-06-22T05:11:50;22.30;;;12.23;;
15958;SDS011;8078;47.822;9.402;2023-06-22T05:14:16;21.70;;;11.02;;
15958;SDS011;8078;47.822;9.402;2023-06-22T05:16:42;16.17;;;10.75;;
15958;SDS011;8078;47.822;9.402;2023-06-22T05:19:08;18.05;;;10.85;;
15958;SDS011;8078;47.822;9.402;2023-06-22T05:21:34;17.58;;;10.57;;
15958;SDS011;8078;47.822;9.402;2023-06-22T05:24:00;17.02;;;10.77;;
15958;SDS011;8078;47.822;9.402;2023-06-22T05:26:28;20.58;;;10.57;;
15958;SDS011;8078;47.822;9.402;2023-06-22T05:28:54;17.52;;;10.20;;
15958;SDS011;8078;47.822;9.402;2023-06-22T05:31:20;18.30;;;10.30;;
15958;SDS011;8078;47.822;9.402;2023-06-22T05:33:46;20.10;;;10.65;;
15958;SDS011;8078;47.822;9.402;2023-06-22T05:36:13;18.48;;;9.73;;
15958;SDS011;8078;47.822;9.402;2023-06-22T05:38:39;17.05;;;10.02;;
15958;SDS011;8078;47.822;9.402;2023-06-22T05:41:06;18.58;;;10.40;;
15958;SDS011;8078;47.822;9.402;2023-06-22T05:43:32;17.50;;;9.45;;
15958;SDS011;8078;47.822;9.402;2023-06-22T05:45:58;13.98;;;9.75;;
15958;SDS011;8078;47.822;9.402;2023-06-22T05:48:24;13.88;;;9.30;;
15958;SDS011;8078;47.822;9.402;2023-06-22T05:50:50;19.75;;;10.25;;
15958;SDS011;8078;47.822;9.402;2023-06-22T05:53:16;15.57;;;9.43;;
15958;SDS011;8078;47.822;9.402;2023-06-22T05:55:41;17.23;;;9.90;;
15958;SDS011;8078;47.822;9.402;2023-06-22T05:58:07;17.33;;;10.20;;
15958;SDS011;8078;47.822;9.402;2023-06-22T06:00:33;14.43;;;9.60;;
15958;SDS011;8078;47.822;9.402;2023-06-22T06:02:58;17.88;;;10.13;;
15958;SDS011;8078;47.822;9.402;2023-06-22T06:05:28;17.45;;;10.68;;
15958;SDS011;8078;47.822;9.402;2023-06-22T06:07:54;19.58;;;9.93;;
15958;SDS011;8078;47.822;9.402;2023-06-22T06:10:20;20.40;;;10.23;;
15958;SDS011;8078;47.822;9.402;2023-06-22T06:12:45;20.48;;;10.05;;
15958;SDS011;8078;47.822;9.402;2023-06-22T06:15:11;18.13;;;9.70;;
15958;SDS011;8078;47.822;9.402;2023-06-22T06:17:44;16.67;;;10.30;;
15958;SDS011;8078;47.822;9.402;2023-06-22T06:20:14;20.23;;;10.10;;
15958;SDS011;8078;47.822;9.402;2023-06-22T06:22:40;16.25;;;10.38;;
15958;SDS011;8078;47.822;9.402;2023-06-22T06:25:07;14.38;;;9.85;;
15958;SDS011;8078;47.822;9.402;2023-06-22T06:27:33;13.73;;;9.52;;
15958;SDS011;8078;47.822;9.402;2023-06-22T06:29:59;15.73;;;10.48;;
15958;SDS011;8078;47.822;9.402;2023-06-22T06:32:24;14.70;;;9.18;;
15958;SDS011;8078;47.822;9.402;2023-06-22T06:34:50;15.93;;;10.95;;
15958;SDS011;8078;47.822;9.402;2023-06-22T06:37:16;17.40;;;10.13;;
15958;SDS011;8078;47.822;9.402;2023-06-22T06:39:43;16.75;;;9.82;;
15958;SDS011;8078;47.822;9.402;2023-06-22T06:42:09;19.88;;;10.05;;
15958;SDS011;8078;47.822;9.402;2023-06-22T06:44:36;19.10;;;9.88;;
15958;SDS011;8078;47.822;9.402;2023-06-22T06:47:02;16.67;;;9.85;;
15958;SDS011;8078;47.822;9.402;2023-06-22T06:49:29;16.60;;;10.70;;
15958;SDS011;8078;47.822;9.402;2023-06-22T06:51:54;19.55;;;9.75;;
15958;SDS011;8078;47.822;9.402;2023-06-22T06:54:21;12.00;;;9.50;;
15958;SDS011;8078;47.822;9.402;2023-06-22T06:56:46;15.70;;;9.32;;
15958;SDS011;8078;47.822;9.402;2023-06-22T06:59:13;19.42;;;10.20;;
15958;SDS011;8078;47.822;9.402;2023-06-22T07:01:40;13.02;;;9.38;;
15958;SDS011;8078;47.822;9.402;2023-06-22T07:04:06;15.77;;;9.57;;
15958;SDS011;8078;47.822;9.402;2023-06-22T07:06:32;15.20;;;9.30;;
15958;SDS011;8078;47.822;9.402;2023-06-22T07:08:58;20.80;;;10.77;;
15958;SDS011;8078;47.822;9.402;2023-06-22T07:11:24;15.85;;;9.30;;
15958;SDS011;8078;47.822;9.402;2023-06-22T07:13:50;16.88;;;10.13;;
15958;SDS011;8078;47.822;9.402;2023-06-22T07:16:16;17.10;;;10.85;;
15958;SDS011;8078;47.822;9.402;2023-06-22T07:18:41;18.25;;;10.73;;
15958;SDS011;8078;47.822;9.402;2023-06-22T07:21:07;15.93;;;10.23;;
15958;SDS011;8078;47.822;9.402;2023-06-22T07:23:33;16.73;;;10.23;;
15958;SDS011;8078;47.822;9.402;2023-06-22T07:25:58;19.75;;;10.70;;
15958;SDS011;8078;47.822;9.402;2023-06-22T07:28:27;17.30;;;10.50;;
15958;SDS011;8078;47.822;9.402;2023-06-22T07:30:53;16.40;;;9.60;;
15958;SDS011;8078;47.822;9.402;2023-06-22T07:33:19;17.63;;;10.40;;
15958;SDS011;8078;47.822;9.402;2023-06-22T07:35:44;17.13;;;10.25;;
15958;SDS011;8078;47.822;9.402;2023-06-22T07:38:11;20.50;;;10.43;;
15958;SDS011;8078;47.822;9.402;2023-06-22T07:40:37;17.10;;;9.65;;
15958;SDS011;8078;47.822;9.402;2023-06-22T07:43:03;16.77;;;10.27;;
15958;SDS011;8078;47.822;9.402;2023-06-22T07:45:29;16.95;;;9.68;;
15958;SDS011;8078;47.822;9.402;2023-06-22T07:47:54;17.45;;;10.05;;
15958;SDS011;8078;47.822;9.402;2023-06-22T07:50:20;16.15;;;10.02;;
15958;SDS011;8078;47.822;9.402;2023-06-22T07:52:45;12.00;;;8.32;;
15958;SDS011;8078;47.822;9.402;2023-06-22T07:55:13;17.90;;;9.70;;
15958;SDS011;8078;47.822;9.402;2023-06-22T07:57:38;17.67;;;8.18;;
15958;SDS011;8078;47.822;9.402;2023-06-22T08:00:04;15.68;;;9.32;;
15958;SDS011;8078;47.822;9.402;2023-06-22T08:02:42;14.13;;;8.82;;
15958;SDS011;8078;47.822;9.402;2023-06-22T08:05:09;14.43;;;8.43;;
15958;SDS011;8078;47.822;9.402;2023-06-22T08:07:36;14.90;;;8.30;;
15958;SDS011;8078;47.822;9.402;2023-06-22T08:10:02;16.13;;;8.20;;
15958;SDS011;8078;47.822;9.402;2023-06-22T08:12:29;18.20;;;8.75;;
15958;SDS011;8078;47.822;9.402;2023-06-22T08:14:54;14.10;;;7.18;;
15958;SDS011;8078;47.822;9.402;2023-06-22T08:17:21;15.68;;;7.85;;
15958;SDS011;8078;47.822;9.402;2023-06-22T08:19:48;14.90;;;7.80;;
15958;SDS011;8078;47.822;9.402;2023-06-22T08:22:14;18.13;;;8.10;;
15958;SDS011;8078;47.822;9.402;2023-06-22T08:24:40;25.55;;;8.93;;
15958;SDS011;8078;47.822;9.402;2023-06-22T08:27:09;13.63;;;8.45;;
15958;SDS011;8078;47.822;9.402;2023-06-22T08:29:39;19.25;;;9.52;;
15958;SDS011;8078;47.822;9.402;2023-06-22T08:32:07;21.42;;;9.02;;
15958;SDS011;8078;47.822;9.402;2023-06-22T08:34:33;15.70;;;9.70;;
15958;SDS011;8078;47.822;9.402;2023-06-22T08:36:59;21.10;;;9.95;;
15958;SDS011;8078;47.822;9.402;2023-06-22T08:39:25;24.25;;;10.52;;
15958;SDS011;8078;47.822;9.402;2023-06-22T08:41:51;17.25;;;10.35;;
15958;SDS011;8078;47.822;9.402;2023-06-22T08:44:18;20.42;;;11.65;;
15958;SDS011;8078;47.822;9.402;2023-06-22T08:46:44;15.07;;;11.32;;
15958;SDS011;8078;47.822;9.402;2023-06-22T08:49:09;17.30;;;12.02;;
15958;SDS011;8078;47.822;9.402;2023-06-22T08:51:35;19.90;;;11.95;;
15958;SDS011;8078;47.822;9.402;2023-06-22T08:54:01;19.38;;;12.40;;
15958;SDS011;8078;47.822;9.402;2023-06-22T08:56:26;20.17;;;11.45;;
15958;SDS011;8078;47.822;9.402;2023-06-22T08:58:52;19.90;;;11.65;;
15958;SDS011;8078;47.822;9.402;2023-06-22T09:01:17;22.17;;;11.18;;
15958;SDS011;8078;47.822;9.402;2023-06-22T09:03:43;20.75;;;11.80;;
15958;SDS011;8078;47.822;9.402;2023-06-22T09:06:09;14.85;;;10.52;;
15958;SDS011;8078;47.822;9.402;2023-06-22T09:08:35;21.70;;;12.18;;
15958;SDS011;8078;47.822;9.402;2023-06-22T09:11:01;20.88;;;11.15;;
15958;SDS011;8078;47.822;9.402;2023-06-22T09:13:29;21.15;;;10.75;;
15958;SDS011;8078;47.822;9.402;2023-06-22T09:15:56;18.27;;;11.13;;
15958;SDS011;8078;47.822;9.402;2023-06-22T09:18:21;18.17;;;11.07;;
15958;SDS011;8078;47.822;9.402;2023-06-22T09:20:47;16.92;;;11.27;;
15958;SDS011;8078;47.822;9.402;2023-06-22T09:23:12;22.25;;;11.98;;
15958;SDS011;8078;47.822;9.402;2023-06-22T09:25:38;20.02;;;11.73;;
15958;SDS011;8078;47.822;9.402;2023-06-22T09:28:05;19.08;;;11.05;;
15958;SDS011;8078;47.822;9.402;2023-06-22T09:30:30;20.23;;;11.00;;
15958;SDS011;8078;47.822;9.402;2023-06-22T09:32:56;22.52;;;10.88;;
15958;SDS011;8078;47.822;9.402;2023-06-22T09:35:21;20.17;;;10.55;;
15958;SDS011;8078;47.822;9.402;2023-06-22T09:37:47;14.57;;;10.40;;
15958;SDS011;8078;47.822;9.402;2023-06-22T09:40:12;14.45;;;9.35;;
15958;SDS011;8078;47.822;9.402;2023-06-22T09:42:41;13.95;;;8.48;;
15958;SDS011;8078;47.822;9.402;2023-06-22T09:45:06;13.02;;;9.07;;
15958;SDS011;8078;47.822;9.402;2023-06-22T09:47:32;13.85;;;7.65;;
15958;SDS011;8078;47.822;9.402;2023-06-22T09:49:58;17.85;;;8.43;;
15958;SDS011;8078;47.822;9.402;2023-06-22T09:52:24;16.33;;;8.98;;
15958;SDS011;8078;47.822;9.402;2023-06-22T09:54:50;13.90;;;7.72;;
15958;SDS011;8078;47.822;9.402;2023-06-22T09:57:16;14.63;;;8.15;;
15958;SDS011;8078;47.822;9.402;2023-06-22T09:59:42;16.95;;;8.68;;
15958;SDS011;8078;47.822;9.402;2023-06-22T10:02:07;13.00;;;7.38;;
15958;SDS011;8078;47.822;9.402;2023-06-22T10:04:33;10.30;;;6.95;;
15958;SDS011;8078;47.822;9.402;2023-06-22T10:06:59;17.40;;;7.47;;
15958;SDS011;8078;47.822;9.402;2023-06-22T10:09:26;17.52;;;6.75;;
15958;SDS011;8078;47.822;9.402;2023-06-22T10:11:52;10.80;;;5.30;;
15958;SDS011;8078;47.822;9.402;2023-06-22T10:14:18;16.83;;;6.35;;
15958;SDS011;8078;47.822;9.402;2023-06-22T10:16:44;12.57;;;6.93;;
15958;SDS011;8078;47.822;9.402;2023-06-22T10:19:10;15.77;;;6.55;;
15958;SDS011;8078;47.822;9.402;2023-06-22T10:21:35;18.35;;;6.65;;
15958;SDS011;8078;47.822;9.402;2023-06-22T10:24:01;10.80;;;6.30;;
15958;SDS011;8078;47.822;9.402;2023-06-22T10:26:34;15.82;;;6.60;;
15958;SDS011;8078;47.822;9.402;2023-06-22T10:29:00;21.30;;;6.60;;
15958;SDS011;8078;47.822;9.402;2023-06-22T10:31:27;15.93;;;6.65;;
15958;SDS011;8078;47.822;9.402;2023-06-22T10:33:53;16.10;;;5.93;;
15958;SDS011;8078;47.822;9.402;2023-06-22T10:36:21;17.58;;;6.47;;
15958;SDS011;8078;47.822;9.402;2023-06-22T10:38:47;14.48;;;6.35;;
15958;SDS011;8078;47.822;9.402;2023-06-22T10:41:13;19.80;;;6.35;;
15958;SDS011;8078;47.822;9.402;2023-06-22T10:43:39;12.52;;;6.45;;
15958;SDS011;8078;47.822;9.402;2023-06-22T10:46:05;14.65;;;6.30;;
15958;SDS011;8078;47.822;9.402;2023-06-22T10:48:31;14.45;;;6.18;;
15958;SDS011;8078;47.822;9.402;2023-06-22T10:50:57;15.15;;;6.13;;
15958;SDS011;8078;47.822;9.402;2023-06-22T10:53:22;19.60;;;6.20;;
15958;SDS011;8078;47.822;9.402;2023-06-22T10:55:48;23.58;;;6.85;;
15958;SDS011;8078;47.822;9.402;2023-06-22T10:58:14;21.08;;;6.57;;
15958;SDS011;8078;47.822;9.402;2023-06-22T11:00:40;16.05;;;6.28;;
15958;SDS011;8078;47.822;9.402;2023-06-22T11:03:05;15.82;;;6.00;;
15958;SDS011;8078;47.822;9.402;2023-06-22T11:05:31;18.27;;;5.88;;
15958;SDS011;8078;47.822;9.402;2023-06-22T11:07:57;12.10;;;5.75;;
15958;SDS011;8078;47.822;9.402;2023-06-22T11:10:22;16.33;;;6.70;;
15958;SDS011;8078;47.822;9.402;2023-06-22T11:12:48;12.45;;;6.03;;
15958;SDS011;8078;47.822;9.402;2023-06-22T11:15:13;11.13;;;5.90;;
15958;SDS011;8078;47.822;9.402;2023-06-22T11:17:39;13.63;;;6.60;;
15958;SDS011;8078;47.822;9.402;2023-06-22T11:20:05;14.82;;;6.32;;
15958;SDS011;8078;47.822;9.402;2023-06-22T11:22:36;13.43;;;6.38;;
15958;SDS011;8078;47.822;9.402;2023-06-22T11:25:05;16.13;;;6.47;;
15958;SDS011;8078;47.822;9.402;2023-06-22T11:27:32;14.82;;;5.80;;
15958;SDS011;8078;47.822;9.402;2023-06-22T11:29:57;18.65;;;5.63;;
15958;SDS011;8078;47.822;9.402;2023-06-22T11:32:23;16.02;;;6.40;;
15958;SDS011;8078;47.822;9.402;2023-06-22T11:34:48;14.43;;;5.68;;
15958;SDS011;8078;47.822;9.402;2023-06-22T11:37:14;13.85;;;5.90;;
15958;SDS011;8078;47.822;9.402;2023-06-22T11:39:40;17.08;;;5.95;;
15958;SDS011;8078;47.822;9.402;2023-06-22T11:42:06;17.88;;;6.07;;
15958;SDS011;8078;47.822;9.402;2023-06-22T11:44:32;16.33;;;6.20;;
15958;SDS011;8078;47.822;9.402;2023-06-22T11:46:58;12.98;;;6.18;;
15958;SDS011;8078;47.822;9.402;2023-06-22T11:49:25;15.13;;;6.38;;
15958;SDS011;8078;47.822;9.402;2023-06-22T11:51:54;17.67;;;7.18;;
15958;SDS011;8078;47.822;9.402;2023-06-22T11:54:19;15.40;;;6.55;;
15958;SDS011;8078;47.822;9.402;2023-06-22T11:56:45;18.50;;;7.18;;
15958;SDS011;8078;47.822;9.402;2023-06-22T11:59:10;14.63;;;6.78;;
15958;SDS011;8078;47.822;9.402;2023-06-22T12:01:36;13.35;;;6.40;;
15958;SDS011;8078;47.822;9.402;2023-06-22T12:04:02;17.40;;;6.05;;
15958;SDS011;8078;47.822;9.402;2023-06-22T12:06:30;11.43;;;6.30;;
15958;SDS011;8078;47.822;9.402;2023-06-22T12:09:03;15.68;;;6.68;;
15958;SDS011;8078;47.822;9.402;2023-06-22T12:11:29;22.90;;;6.40;;
15958;SDS011;8078;47.822;9.402;2023-06-22T12:13:55;18.60;;;7.28;;
15958;SDS011;8078;47.822;9.402;2023-06-22T12:16:21;18.70;;;6.32;;
15958;SDS011;8078;47.822;9.402;2023-06-22T12:18:47;16.30;;;6.32;;
15958;SDS011;8078;47.822;9.402;2023-06-22T12:21:12;13.93;;;6.28;;
15958;SDS011;8078;47.822;9.402;2023-06-22T12:23:38;18.25;;;6.53;;
15958;SDS011;8078;47.822;9.402;2023-06-22T12:26:03;12.95;;;6.13;;
15958;SDS011;8078;47.822;9.402;2023-06-22T12:28:29;13.63;;;6.47;;
15958;SDS011;8078;47.822;9.402;2023-06-22T12:30:55;14.73;;;6.28;;
15958;SDS011;8078;47.822;9.402;2023-06-22T12:33:20;21.33;;;7.15;;
15958;SDS011;8078;47.822;9.402;2023-06-22T12:35:46;18.50;;;7.25;;
15958;SDS011;8078;47.822;9.402;2023-06-22T12:38:14;14.27;;;6.68;;
15958;SDS011;8078;47.822;9.402;2023-06-22T12:40:39;15.63;;;6.88;;
15958;SDS011;8078;47.822;9.402;2023-06-22T12:43:05;12.05;;;6.95;;
15958;SDS011;8078;47.822;9.402;2023-06-22T12:45:31;14.52;;;7.35;;
15958;SDS011;8078;47.822;9.402;2023-06-22T12:47:58;15.35;;;7.38;;
15958;SDS011;8078;47.822;9.402;2023-06-22T12:50:24;21.90;;;7.07;;
15958;SDS011;8078;47.822;9.402;2023-06-22T12:52:50;19.20;;;7.07;;
15958;SDS011;8078;47.822;9.402;2023-06-22T12:55:15;15.45;;;6.85;;
15958;SDS011;8078;47.822;9.402;2023-06-22T12:57:41;17.63;;;7.15;;
15958;SDS011;8078;47.822;9.402;2023-06-22T13:00:07;17.77;;;6.75;;
15958;SDS011;8078;47.822;9.402;2023-06-22T13:02:35;14.95;;;7.38;;
15958;SDS011;8078;47.822;9.402;2023-06-22T13:05:01;16.88;;;7.18;;
15958;SDS011;8078;47.822;9.402;2023-06-22T13:07:26;12.32;;;6.97;;
15958;SDS011;8078;47.822;9.402;2023-06-22T13:09:52;15.60;;;7.53;;
15958;SDS011;8078;47.822;9.402;2023-06-22T13:12:19;17.30;;;6.95;;
15958;SDS011;8078;47.822;9.402;2023-06-22T13:14:47;19.80;;;7.75;;
15958;SDS011;8078;47.822;9.402;2023-06-22T13:17:15;14.77;;;7.18;;
15958;SDS011;8078;47.822;9.402;2023-06-22T13:19:41;17.52;;;7.53;;
15958;SDS011;8078;47.822;9.402;2023-06-22T13:24:51;13.10;;;7.38;;
15958;SDS011;8078;47.822;9.402;2023-06-22T13:27:16;15.50;;;7.82;;
15958;SDS011;8078;47.822;9.402;2023-06-22T13:29:42;14.77;;;7.47;;
15958;SDS011;8078;47.822;9.402;2023-06-22T13:32:07;21.35;;;7.47;;
15958;SDS011;8078;47.822;9.402;2023-06-22T13:34:33;18.45;;;7.53;;
15958;SDS011;8078;47.822;9.402;2023-06-22T13:36:58;15.00;;;6.50;;
15958;SDS011;8078;47.822;9.402;2023-06-22T13:39:24;18.58;;;6.57;;
15958;SDS011;8078;47.822;9.402;2023-06-22T13:41:49;17.23;;;5.57;;
15958;SDS011;8078;47.822;9.402;2023-06-22T13:44:15;12.77;;;5.20;;
15958;SDS011;8078;47.822;9.402;2023-06-22T13:46:41;18.20;;;5.97;;
15958;SDS011;8078;47.822;9.402;2023-06-22T13:49:06;11.85;;;5.80;;
15958;SDS011;8078;47.822;9.402;2023-06-22T13:51:32;17.30;;;6.15;;
15958;SDS011;8078;47.822;9.402;2023-06-22T13:53:57;18.30;;;7.05;;
15958;SDS011;8078;47.822;9.402;2023-06-22T13:56:23;14.45;;;6.22;;
15958;SDS011;8078;47.822;9.402;2023-06-22T13:58:49;16.98;;;6.35;;
15958;SDS011;8078;47.822;9.402;2023-06-22T14:01:14;15.45;;;6.07;;
15958;SDS011;8078;47.822;9.402;2023-06-22T14:03:40;14.43;;;5.95;;
15958;SDS011;8078;47.822;9.402;2023-06-22T14:06:05;13.25;;;5.72;;
15958;SDS011;8078;47.822;9.402;2023-06-22T14:08:31;13.68;;;6.03;;
15958;SDS011;8078;47.822;9.402;2023-06-22T14:10:57;16.08;;;6.60;;
15958;SDS011;8078;47.822;9.402;2023-06-22T14:13:22;15.90;;;6.00;;
15958;SDS011;8078;47.822;9.402;2023-06-22T14:15:48;13.32;;;7.93;;
15958;SDS011;8078;47.822;9.402;2023-06-22T14:18:13;17.88;;;7.70;;
15958;SDS011;8078;47.822;9.402;2023-06-22T14:20:40;13.73;;;7.93;;
15958;SDS011;8078;47.822;9.402;2023-06-22T14:23:05;15.15;;;8.23;;
15958;SDS011;8078;47.822;9.402;2023-06-22T14:25:31;18.98;;;8.18;;
15958;SDS011;8078;47.822;9.402;2023-06-22T14:27:56;19.17;;;8.70;;
15958;SDS011;8078;47.822;9.402;2023-06-22T14:30:22;16.23;;;8.55;;
15958;SDS011;8078;47.822;9.402;2023-06-22T14:32:48;17.20;;;8.25;;
15958;SDS011;8078;47.822;9.402;2023-06-22T14:35:13;15.52;;;8.00;;
15958;SDS011;8078;47.822;9.402;2023-06-22T14:37:39;13.68;;;8.50;;
15958;SDS011;8078;47.822;9.402;2023-06-22T14:40:04;22.02;;;9.63;;
15958;SDS011;8078;47.822;9.402;2023-06-22T14:42:30;21.80;;;9.40;;
15958;SDS011;8078;47.822;9.402;2023-06-22T14:44:56;19.67;;;9.23;;
15958;SDS011;8078;47.822;9.402;2023-06-22T14:47:21;17.70;;;9.05;;